createdAt,value
2017-12-03T00:01:44.012Z,13.05
2017-12-03T00:04:18.712Z,13.20
2017-12-03T00:06:52.572Z,13.07
2017-12-03T00:09:27.221Z,14.48
2017-12-03T00:12:01.480Z,14.20
2017-12-03T00:14:35.347Z,12.70
2017-12-03T00:17:09.999Z,12.30
2017-12-03T00:19:45.516Z,13.68
2017-12-03T00:22:19.184Z,14.95
2017-12-03T00:24:54.873Z,12.57
2017-12-03T00:27:28.724Z,12.68
2017-12-03T00:30:02.504Z,12.93
2017-12-03T00:32:38.649Z,12.88
2017-12-03T00:35:12.644Z,13.50
2017-12-03T00:37:46.474Z,13.50
2017-12-03T00:40:21.105Z,13.57
2017-12-03T00:42:55.628Z,13.40
2017-12-03T00:45:29.613Z,14.35
2017-12-03T00:48:05.257Z,13.30
2017-12-03T00:50:39.396Z,14.13
2017-12-03T00:53:14.136Z,12.80
2017-12-03T00:55:51.194Z,12.82
2017-12-03T00:58:25.305Z,13.32
2017-12-03T01:00:59.188Z,14.02
2017-12-03T01:03:33.112Z,14.13
2017-12-03T01:06:06.885Z,12.50
2017-12-03T01:08:41.044Z,13.88
2017-12-03T01:11:15.009Z,13.27
2017-12-03T01:13:50.352Z,13.45
2017-12-03T01:16:24.317Z,13.80
2017-12-03T01:18:58.288Z,11.43
2017-12-03T01:21:33.339Z,11.20
2017-12-03T01:24:07.201Z,14.45
2017-12-03T01:26:41.262Z,13.75
2017-12-03T01:29:15.209Z,11.85
2017-12-03T01:31:50.161Z,12.77
2017-12-03T01:34:23.980Z,13.68
2017-12-03T01:36:58.847Z,11.98
2017-12-03T01:39:32.758Z,12.20
2017-12-03T01:42:07.609Z,13.32
2017-12-03T01:44:41.510Z,11.63
2017-12-03T01:47:16.303Z,13.55
2017-12-03T01:49:51.094Z,12.88
2017-12-03T01:52:24.859Z,12.20
2017-12-03T01:55:00.549Z,12.90
2017-12-03T01:57:34.327Z,12.50
2017-12-03T02:00:11.527Z,12.63
2017-12-03T02:02:45.411Z,13.43
2017-12-03T02:05:20.062Z,12.35
2017-12-03T02:07:53.946Z,11.55
2017-12-03T02:10:28.792Z,12.55
2017-12-03T02:13:03.624Z,12.07
2017-12-03T02:15:39.148Z,12.63
2017-12-03T02:18:13.132Z,12.93
2017-12-03T02:20:47.809Z,13.18
2017-12-03T02:23:21.680Z,12.75
2017-12-03T02:25:55.708Z,12.93
2017-12-03T02:28:29.545Z,13.32
2017-12-03T02:31:13.248Z,11.27
2017-12-03T02:33:47.190Z,13.40
2017-12-03T02:36:21.201Z,12.13
2017-12-03T02:38:55.009Z,12.32
2017-12-03T02:41:29.030Z,13.40
2017-12-03T02:44:02.802Z,12.48
2017-12-03T02:46:37.697Z,13.40
2017-12-03T02:49:11.400Z,12.00
2017-12-03T02:51:45.351Z,15.32
2017-12-03T02:54:19.150Z,14.00
2017-12-03T02:56:55.837Z,13.48
2017-12-03T02:59:29.663Z,12.45
2017-12-03T03:02:05.495Z,14.00
2017-12-03T03:04:39.292Z,13.32
2017-12-03T03:07:13.913Z,13.90
2017-12-03T03:09:48.765Z,14.43
2017-12-03T03:12:24.083Z,13.75
2017-12-03T03:14:58.681Z,14.70
2017-12-03T03:17:33.627Z,15.05
2017-12-03T03:20:08.340Z,14.87
2017-12-03T03:22:42.057Z,11.30
2017-12-03T03:25:16.861Z,12.98
2017-12-03T03:27:50.740Z,13.60
2017-12-03T03:30:24.685Z,14.40
2017-12-03T03:32:58.586Z,13.25
2017-12-03T03:35:34.124Z,13.20
2017-12-03T03:38:08.293Z,12.57
2017-12-03T03:40:42.260Z,14.23
2017-12-03T03:43:16.319Z,13.32
2017-12-03T03:45:51.288Z,14.02
2017-12-03T03:48:25.188Z,13.43
2017-12-03T03:50:59.000Z,13.18
2017-12-03T03:53:32.916Z,13.80
2017-12-03T03:56:06.634Z,11.82
2017-12-03T03:58:43.829Z,12.70
2017-12-03T04:01:17.707Z,13.70
2017-12-03T04:03:51.738Z,16.25
2017-12-03T04:06:26.644Z,12.40
2017-12-03T04:09:01.320Z,16.45
2017-12-03T04:11:38.044Z,17.80
2017-12-03T04:14:12.846Z,17.45
2017-12-03T04:16:46.910Z,17.02
2017-12-03T04:19:21.491Z,17.95
2017-12-03T04:21:55.336Z,18.50
2017-12-03T04:24:29.357Z,18.05
2017-12-03T04:27:03.976Z,17.60
2017-12-03T04:29:38.667Z,18.87
2017-12-03T04:32:12.805Z,18.30
2017-12-03T04:34:48.224Z,18.40
2017-12-03T04:37:22.070Z,19.85
2017-12-03T04:39:56.985Z,17.67
2017-12-03T04:42:30.913Z,19.25
2017-12-03T04:45:05.846Z,17.85
2017-12-03T04:47:42.055Z,17.48
2017-12-03T04:50:15.781Z,18.02
2017-12-03T04:52:49.658Z,18.12
2017-12-03T04:55:23.438Z,18.45
2017-12-03T05:01:00.029Z,18.50
2017-12-03T05:03:35.634Z,21.17
2017-12-03T05:06:10.114Z,18.85
2017-12-03T05:08:43.948Z,23.27
2017-12-03T05:11:17.869Z,21.85
2017-12-03T05:13:52.484Z,23.55
2017-12-03T05:16:27.104Z,23.48
2017-12-03T05:19:00.990Z,22.65
2017-12-03T05:21:35.816Z,21.90
2017-12-03T05:27:09.678Z,22.35
2017-12-03T05:29:43.487Z,23.40
2017-12-03T05:32:19.093Z,23.27
2017-12-03T05:34:52.840Z,22.73
2017-12-03T05:37:28.868Z,22.67
2017-12-03T05:40:02.845Z,23.73
2017-12-03T05:42:37.418Z,22.42
2017-12-03T05:45:11.888Z,21.52
2017-12-03T05:47:46.557Z,23.77
2017-12-03T05:50:20.359Z,23.87
2017-12-03T05:52:55.119Z,22.27
2017-12-03T05:55:28.955Z,21.10
2017-12-03T05:58:03.643Z,22.02
2017-12-03T06:00:39.372Z,21.70
2017-12-03T06:03:13.989Z,22.65
2017-12-03T06:05:47.850Z,23.65
2017-12-03T06:08:21.740Z,21.42
2017-12-03T06:10:57.412Z,23.10
2017-12-03T06:13:31.240Z,23.70
2017-12-03T06:16:05.153Z,24.15
2017-12-03T06:18:38.925Z,22.77
2017-12-03T06:21:12.867Z,24.48
2017-12-03T06:23:46.597Z,23.02
2017-12-03T06:26:20.545Z,22.02
2017-12-03T06:28:54.326Z,23.10
2017-12-03T06:31:28.987Z,23.87
2017-12-03T06:34:03.612Z,22.20
2017-12-03T06:36:37.740Z,24.25
2017-12-03T06:39:11.645Z,23.15
2017-12-03T06:41:45.659Z,24.27
2017-12-03T06:44:19.517Z,22.48
2017-12-03T06:46:54.180Z,23.85
2017-12-03T06:49:28.011Z,25.15
2017-12-03T06:52:01.982Z,23.67
2017-12-03T06:54:36.597Z,25.67
2017-12-03T06:57:10.510Z,25.83
2017-12-03T06:59:44.202Z,23.92
2017-12-03T07:02:18.025Z,24.85
2017-12-03T07:04:52.652Z,23.33
2017-12-03T07:07:26.550Z,25.98
2017-12-03T07:10:01.053Z,26.00
2017-12-03T07:12:40.224Z,25.20
2017-12-03T07:15:14.252Z,25.02
2017-12-03T07:17:48.174Z,24.95
2017-12-03T07:20:21.991Z,25.12
2017-12-03T07:22:56.570Z,23.25
2017-12-03T07:25:31.147Z,22.92
2017-12-03T07:28:05.089Z,24.50
2017-12-03T07:30:39.692Z,22.95
2017-12-03T07:33:14.248Z,23.58
2017-12-03T07:35:49.706Z,22.90
2017-12-03T07:38:23.432Z,24.23
2017-12-03T07:40:57.308Z,25.23
2017-12-03T07:43:33.312Z,23.65
2017-12-03T07:46:07.232Z,25.50
2017-12-03T07:48:42.152Z,23.40
2017-12-03T07:51:15.995Z,24.35
2017-12-03T07:54:01.527Z,22.30
2017-12-03T07:56:35.330Z,19.52
2017-12-03T07:59:15.060Z,14.75
2017-12-03T08:01:48.886Z,12.07
2017-12-03T08:04:23.633Z,13.05
2017-12-03T08:06:57.748Z,11.00
2017-12-03T08:09:32.783Z,11.02
2017-12-03T08:12:07.314Z,10.75
2017-12-03T08:14:42.128Z,10.77
2017-12-03T08:17:15.978Z,11.43
2017-12-03T08:19:49.840Z,10.57
2017-12-03T08:22:23.649Z,10.77
2017-12-03T08:25:00.201Z,10.70
2017-12-03T08:27:34.045Z,10.15
2017-12-03T08:30:08.660Z,9.90
2017-12-03T08:32:42.448Z,9.75
2017-12-03T08:35:30.341Z,10.90
2017-12-03T08:38:04.875Z,12.48
2017-12-03T08:40:40.887Z,11.70
2017-12-03T08:43:18.644Z,10.70
2017-12-03T08:45:53.187Z,10.95
2017-12-03T08:48:27.150Z,11.30
2017-12-03T08:51:00.926Z,12.45
2017-12-03T08:53:40.302Z,13.48
2017-12-03T08:56:14.118Z,14.52
2017-12-03T08:58:56.600Z,13.77
2017-12-03T09:01:30.402Z,12.23
2017-12-03T09:04:05.064Z,15.90
2017-12-03T09:06:40.913Z,13.77
2017-12-03T09:09:14.851Z,12.40
2017-12-03T09:11:56.563Z,10.60
2017-12-03T09:14:31.128Z,12.32
2017-12-03T09:17:06.429Z,12.73
2017-12-03T09:19:40.209Z,12.70
2017-12-03T09:22:14.055Z,12.27
2017-12-03T09:24:47.840Z,13.20
2017-12-03T09:27:32.704Z,12.88
2017-12-03T09:30:07.249Z,13.07
2017-12-03T09:32:48.272Z,12.02
2017-12-03T09:35:22.132Z,13.93
2017-12-03T09:37:57.556Z,12.70
2017-12-03T09:40:37.228Z,11.82
2017-12-03T09:43:11.819Z,12.00
2017-12-03T09:45:49.859Z,12.55
2017-12-03T09:48:23.968Z,12.93
2017-12-03T09:50:58.919Z,13.57
2017-12-03T09:53:32.828Z,11.88
2017-12-03T09:56:06.706Z,11.73
2017-12-03T09:58:41.181Z,11.98
2017-12-03T10:01:15.040Z,12.35
2017-12-03T10:03:48.813Z,13.15
2017-12-03T10:06:24.587Z,13.50
2017-12-03T10:08:59.087Z,14.77
2017-12-03T10:11:34.674Z,12.13
2017-12-03T10:14:08.533Z,14.68
2017-12-03T10:16:44.281Z,13.88
2017-12-03T10:19:18.139Z,14.75
2017-12-03T10:21:54.508Z,12.30
2017-12-03T10:24:28.888Z,12.85
2017-12-03T10:27:02.837Z,14.20
2017-12-03T10:29:36.680Z,13.15
2017-12-03T10:32:11.642Z,14.43
2017-12-03T10:34:46.308Z,13.02
2017-12-03T10:37:25.048Z,12.98
2017-12-03T10:39:58.938Z,13.45
2017-12-03T10:42:35.533Z,11.12
2017-12-03T10:45:09.420Z,13.62
2017-12-03T10:47:48.670Z,14.15
2017-12-03T10:50:23.795Z,12.60
2017-12-03T10:52:57.596Z,12.40
2017-12-03T10:55:37.462Z,12.88
2017-12-03T10:58:11.448Z,14.10
2017-12-03T11:00:46.534Z,11.98
2017-12-03T11:03:20.710Z,13.95
2017-12-03T11:05:56.652Z,14.50
2017-12-03T11:08:30.600Z,13.15
2017-12-03T11:11:06.760Z,15.93
2017-12-03T11:13:40.409Z,13.00
2017-12-03T11:16:15.296Z,13.90
2017-12-03T11:18:49.164Z,13.25
2017-12-03T11:21:30.276Z,12.45
2017-12-03T11:24:04.126Z,12.80
2017-12-03T11:26:40.438Z,13.40
2017-12-03T11:29:14.248Z,14.10
2017-12-03T11:31:49.867Z,13.85
2017-12-03T11:34:23.847Z,17.15
2017-12-03T11:36:59.884Z,14.70
2017-12-03T11:39:33.616Z,14.15
2017-12-03T11:42:07.419Z,14.73
2017-12-03T11:44:41.899Z,13.85
2017-12-03T11:47:19.972Z,13.70
2017-12-03T11:49:55.740Z,13.30
2017-12-03T11:52:30.320Z,14.05
2017-12-03T11:55:05.992Z,14.45
2017-12-03T11:57:39.762Z,12.68
2017-12-03T12:00:13.710Z,14.87
2017-12-03T12:02:48.116Z,14.35
2017-12-03T12:05:25.223Z,13.52
2017-12-03T12:07:59.813Z,14.30
2017-12-03T12:10:35.904Z,14.48
2017-12-03T12:13:09.594Z,16.12
2017-12-03T12:15:44.930Z,12.20
2017-12-03T12:18:18.761Z,13.68
2017-12-03T12:20:54.678Z,16.10
2017-12-03T12:23:28.489Z,14.50
2017-12-03T12:26:04.140Z,13.77
2017-12-03T12:28:38.124Z,13.90
2017-12-03T12:31:22.211Z,13.77
2017-12-03T12:33:57.056Z,14.45
2017-12-03T12:36:35.328Z,14.80
2017-12-03T12:39:10.558Z,14.05
2017-12-03T12:41:45.393Z,13.25
2017-12-03T12:44:19.384Z,14.57
2017-12-03T12:46:57.939Z,13.35
2017-12-03T12:49:32.501Z,14.25
2017-12-03T12:52:09.948Z,13.43
2017-12-03T12:54:43.863Z,13.48
2017-12-03T12:57:19.182Z,13.95
2017-12-03T12:59:52.952Z,14.20
2017-12-03T13:02:26.956Z,14.23
2017-12-03T13:05:00.829Z,15.02
2017-12-03T13:07:35.861Z,14.38
2017-12-03T13:10:11.074Z,16.55
2017-12-03T13:12:45.968Z,16.12
2017-12-03T13:15:19.844Z,14.77
2017-12-03T13:17:53.538Z,15.07
2017-12-03T13:20:27.500Z,14.35
2017-12-03T13:23:01.320Z,14.18
2017-12-03T13:25:36.166Z,15.25
2017-12-03T13:28:10.109Z,16.30
2017-12-03T13:30:44.051Z,15.18
2017-12-03T13:33:18.067Z,13.95
2017-12-03T13:35:52.011Z,13.82
2017-12-03T13:38:26.002Z,16.27
2017-12-03T13:40:59.716Z,16.08
2017-12-03T13:43:37.954Z,14.95
2017-12-03T13:46:11.840Z,18.48
2017-12-03T13:48:46.830Z,14.40
2017-12-03T13:51:20.670Z,14.65
2017-12-03T13:53:58.631Z,15.70
2017-12-03T13:56:33.270Z,14.55
2017-12-03T13:59:07.371Z,14.27
2017-12-03T14:01:41.138Z,15.00
2017-12-03T14:04:15.708Z,14.55
2017-12-03T14:06:49.431Z,13.88
2017-12-03T14:09:23.312Z,15.85
2017-12-03T14:11:57.119Z,17.23
2017-12-03T14:14:31.027Z,16.48
2017-12-03T14:17:05.289Z,17.52
2017-12-03T14:19:40.892Z,17.45
2017-12-03T14:22:14.860Z,15.07
2017-12-03T14:24:49.728Z,17.02
2017-12-03T14:27:24.625Z,19.45
2017-12-03T14:29:59.369Z,17.08
2017-12-03T14:32:34.705Z,17.87
2017-12-03T14:35:09.256Z,17.40
2017-12-03T14:37:43.095Z,17.30
2017-12-03T14:40:16.960Z,16.62
2017-12-03T14:42:50.717Z,17.48
2017-12-03T14:45:25.576Z,18.37
2017-12-03T14:48:00.212Z,17.90
2017-12-03T14:50:34.076Z,18.30
2017-12-03T14:53:07.972Z,17.80
2017-12-03T14:55:42.623Z,15.85
2017-12-03T14:58:16.459Z,17.45
2017-12-03T15:00:51.032Z,17.40
2017-12-03T15:03:24.752Z,16.83
2017-12-03T15:05:58.557Z,18.83
2017-12-03T15:08:32.361Z,17.20
2017-12-03T15:11:06.359Z,16.25
2017-12-03T15:13:40.134Z,17.30
2017-12-03T15:16:15.206Z,16.00
2017-12-03T15:18:49.773Z,16.92
2017-12-03T15:21:27.635Z,17.75
2017-12-03T15:24:01.472Z,16.45
2017-12-03T15:26:35.346Z,18.92
2017-12-03T15:29:09.980Z,17.77
2017-12-03T15:31:47.023Z,17.27
2017-12-03T15:34:20.851Z,16.83
2017-12-03T15:36:54.788Z,16.35
2017-12-03T15:39:29.424Z,16.75
2017-12-03T15:42:03.279Z,16.00
2017-12-03T15:44:37.108Z,17.33
2017-12-03T15:47:11.379Z,16.70
2017-12-03T15:49:45.230Z,17.10
2017-12-03T15:52:19.072Z,17.37
2017-12-03T15:54:52.939Z,16.50
2017-12-03T15:57:26.818Z,16.70
2017-12-03T16:00:01.675Z,16.08
2017-12-03T16:02:35.562Z,17.45
2017-12-03T16:05:09.573Z,17.05
2017-12-03T16:07:43.467Z,15.63
2017-12-03T16:10:17.574Z,19.12
2017-12-03T16:12:51.379Z,16.90
2017-12-03T16:15:25.992Z,18.37
2017-12-03T16:18:01.186Z,18.20
2017-12-03T16:20:35.064Z,15.43
2017-12-03T16:23:08.952Z,15.98
2017-12-03T16:25:42.728Z,17.73
2017-12-03T16:28:16.647Z,17.08
2017-12-03T16:30:51.192Z,18.15
2017-12-03T16:33:26.078Z,17.62
2017-12-03T16:35:59.841Z,17.05
2017-12-03T16:38:33.972Z,19.40
2017-12-03T16:41:07.916Z,19.33
2017-12-03T16:43:42.933Z,18.35
2017-12-03T16:46:16.863Z,17.25
2017-12-03T16:48:50.814Z,18.30
2017-12-03T16:51:24.674Z,17.48
2017-12-03T16:53:59.064Z,16.27
2017-12-03T16:56:32.967Z,15.75
2017-12-03T16:59:06.856Z,17.42
2017-12-03T17:01:40.668Z,15.65
2017-12-03T17:04:14.420Z,26.92
2017-12-03T17:06:48.358Z,17.67
2017-12-03T17:09:22.129Z,14.18
2017-12-03T17:11:56.174Z,14.35
2017-12-03T17:14:30.690Z,14.73
2017-12-03T17:17:05.529Z,14.82
2017-12-03T17:19:40.140Z,15.13
2017-12-03T17:22:14.772Z,16.33
2017-12-03T17:24:48.656Z,15.30
2017-12-03T17:27:24.099Z,15.52
2017-12-03T17:29:58.724Z,15.07
2017-12-03T17:32:33.363Z,15.35
2017-12-03T17:35:09.305Z,15.40
2017-12-03T17:37:43.869Z,15.15
2017-12-03T17:40:17.724Z,14.98
2017-12-03T17:42:51.587Z,14.93
2017-12-03T17:45:25.644Z,16.52
2017-12-03T17:47:59.524Z,14.23
2017-12-03T17:50:33.374Z,15.10
2017-12-03T17:53:07.226Z,16.65
2017-12-03T17:55:41.052Z,16.70
2017-12-03T17:58:15.532Z,15.90
2017-12-03T18:00:49.985Z,15.43
2017-12-03T18:03:23.808Z,14.82
2017-12-03T18:05:57.809Z,16.30
2017-12-03T18:08:32.638Z,15.85
2017-12-03T18:11:07.199Z,13.65
2017-12-03T18:13:46.919Z,17.73
2017-12-03T18:16:20.790Z,15.32
2017-12-03T18:18:54.730Z,16.15
2017-12-03T18:21:28.508Z,16.65
2017-12-03T18:24:03.458Z,15.50
2017-12-03T18:26:38.100Z,15.20
